sensor_id;sensor_type;location;lat;lon;timestamp;P1;durP1;ratioP1;P2;durP2;ratioP2
20445;SDS011;10382;49.140;9.234;2022-08-04T00:01:55;16.77;;;5.23;;
20445;SDS011;10382;49.140;9.234;2022-08-04T00:04:31;16.53;;;5.70;;
20445;SDS011;10382;49.140;9.234;2022-08-04T00:07:05;13.27;;;5.93;;
20445;SDS011;10382;49.140;9.234;2022-08-04T00:09:38;19.03;;;6.53;;
20445;SDS011;10382;49.140;9.234;2022-08-04T00:12:10;8.50;;;3.67;;
20445;SDS011;10382;49.140;9.234;2022-08-04T00:14:40;22.83;;;6.30;;
20445;SDS011;10382;49.140;9.234;2022-08-04T00:17:13;14.70;;;5.37;;
20445;SDS011;10382;49.140;9.234;2022-08-04T00:19:44;13.03;;;4.90;;
20445;SDS011;10382;49.140;9.234;2022-08-04T00:22:14;15.03;;;4.80;;
20445;SDS011;10382;49.140;9.234;2022-08-04T00:24:46;16.57;;;5.47;;
20445;SDS011;10382;49.140;9.234;2022-08-04T00:27:13;19.60;;;5.33;;
20445;SDS011;10382;49.140;9.234;2022-08-04T00:29:41;16.37;;;5.90;;
20445;SDS011;10382;49.140;9.234;2022-08-04T00:32:09;21.37;;;7.23;;
20445;SDS011;10382;49.140;9.234;2022-08-04T00:34:38;18.13;;;6.30;;
20445;SDS011;10382;49.140;9.234;2022-08-04T00:37:06;16.77;;;6.17;;
20445;SDS011;10382;49.140;9.234;2022-08-04T00:39:33;17.13;;;5.43;;
20445;SDS011;10382;49.140;9.234;2022-08-04T00:42:16;16.77;;;5.60;;
20445;SDS011;10382;49.140;9.234;2022-08-04T00:48:20;20.47;;;5.90;;
20445;SDS011;10382;49.140;9.234;2022-08-04T00:50:56;16.10;;;6.07;;
20445;SDS011;10382;49.140;9.234;2022-08-04T00:53:37;18.37;;;6.83;;
20445;SDS011;10382;49.140;9.234;2022-08-04T00:56:29;13.93;;;4.93;;
20445;SDS011;10382;49.140;9.234;2022-08-04T00:59:13;16.33;;;5.50;;
20445;SDS011;10382;49.140;9.234;2022-08-04T01:01:50;17.33;;;5.70;;
20445;SDS011;10382;49.140;9.234;2022-08-04T01:04:28;14.33;;;5.17;;
20445;SDS011;10382;49.140;9.234;2022-08-04T01:07:33;13.33;;;5.03;;
20445;SDS011;10382;49.140;9.234;2022-08-04T01:10:31;17.73;;;5.50;;
20445;SDS011;10382;49.140;9.234;2022-08-04T01:13:16;16.97;;;6.73;;
20445;SDS011;10382;49.140;9.234;2022-08-04T01:16:01;12.13;;;4.20;;
20445;SDS011;10382;49.140;9.234;2022-08-04T01:18:32;14.13;;;5.30;;
20445;SDS011;10382;49.140;9.234;2022-08-04T01:21:23;21.97;;;6.87;;
20445;SDS011;10382;49.140;9.234;2022-08-04T01:24:14;21.93;;;6.80;;
20445;SDS011;10382;49.140;9.234;2022-08-04T01:26:54;15.73;;;4.67;;
20445;SDS011;10382;49.140;9.234;2022-08-04T01:29:28;18.03;;;5.70;;
20445;SDS011;10382;49.140;9.234;2022-08-04T01:32:00;14.23;;;5.03;;
20445;SDS011;10382;49.140;9.234;2022-08-04T01:34:29;19.17;;;6.17;;
20445;SDS011;10382;49.140;9.234;2022-08-04T01:37:02;16.00;;;6.77;;
20445;SDS011;10382;49.140;9.234;2022-08-04T01:39:37;24.73;;;6.13;;
20445;SDS011;10382;49.140;9.234;2022-08-04T01:42:13;15.70;;;6.13;;
20445;SDS011;10382;49.140;9.234;2022-08-04T01:44:46;14.50;;;5.57;;
20445;SDS011;10382;49.140;9.234;2022-08-04T01:47:16;20.27;;;6.70;;
20445;SDS011;10382;49.140;9.234;2022-08-04T01:49:46;15.57;;;6.20;;
20445;SDS011;10382;49.140;9.234;2022-08-04T01:52:17;13.47;;;5.43;;
20445;SDS011;10382;49.140;9.234;2022-08-04T01:54:45;15.70;;;5.83;;
20445;SDS011;10382;49.140;9.234;2022-08-04T01:57:14;27.70;;;7.43;;
20445;SDS011;10382;49.140;9.234;2022-08-04T01:59:45;19.10;;;7.17;;
20445;SDS011;10382;49.140;9.234;2022-08-04T02:02:15;18.33;;;5.40;;
20445;SDS011;10382;49.140;9.234;2022-08-04T02:04:42;12.07;;;4.70;;
20445;SDS011;10382;49.140;9.234;2022-08-04T02:07:21;17.40;;;5.27;;
20445;SDS011;10382;49.140;9.234;2022-08-04T02:10:03;10.00;;;4.20;;
20445;SDS011;10382;49.140;9.234;2022-08-04T02:12:35;21.20;;;6.80;;
20445;SDS011;10382;49.140;9.234;2022-08-04T02:15:16;14.33;;;5.90;;
20445;SDS011;10382;49.140;9.234;2022-08-04T02:17:51;16.53;;;6.13;;
20445;SDS011;10382;49.140;9.234;2022-08-04T02:20:34;20.70;;;6.70;;
20445;SDS011;10382;49.140;9.234;2022-08-04T02:23:05;17.10;;;5.03;;
20445;SDS011;10382;49.140;9.234;2022-08-04T02:25:36;15.03;;;6.13;;
20445;SDS011;10382;49.140;9.234;2022-08-04T02:28:17;10.83;;;5.40;;
20445;SDS011;10382;49.140;9.234;2022-08-04T02:30:52;12.07;;;5.30;;
20445;SDS011;10382;49.140;9.234;2022-08-04T02:33:33;13.03;;;6.30;;
20445;SDS011;10382;49.140;9.234;2022-08-04T02:36:03;15.10;;;5.30;;
20445;SDS011;10382;49.140;9.234;2022-08-04T02:38:39;12.90;;;5.67;;
20445;SDS011;10382;49.140;9.234;2022-08-04T02:41:19;10.57;;;4.83;;
20445;SDS011;10382;49.140;9.234;2022-08-04T02:43:48;10.20;;;4.90;;
20445;SDS011;10382;49.140;9.234;2022-08-04T02:46:17;20.33;;;4.20;;
20445;SDS011;10382;49.140;9.234;2022-08-04T02:48:45;16.10;;;6.80;;
20445;SDS011;10382;49.140;9.234;2022-08-04T02:51:14;11.47;;;4.93;;
20445;SDS011;10382;49.140;9.234;2022-08-04T02:53:44;16.27;;;7.40;;
20445;SDS011;10382;49.140;9.234;2022-08-04T02:56:14;12.27;;;5.60;;
20445;SDS011;10382;49.140;9.234;2022-08-04T02:58:45;10.73;;;5.00;;
20445;SDS011;10382;49.140;9.234;2022-08-04T03:01:14;10.00;;;4.33;;
20445;SDS011;10382;49.140;9.234;2022-08-04T03:03:45;15.60;;;6.70;;
20445;SDS011;10382;49.140;9.234;2022-08-04T03:06:27;9.60;;;4.50;;
20445;SDS011;10382;49.140;9.234;2022-08-04T03:12:34;14.27;;;5.30;;
20445;SDS011;10382;49.140;9.234;2022-08-04T03:15:28;9.13;;;3.90;;
20445;SDS011;10382;49.140;9.234;2022-08-04T03:18:30;20.13;;;5.40;;
20445;SDS011;10382;49.140;9.234;2022-08-04T03:21:21;10.23;;;5.10;;
20445;SDS011;10382;49.140;9.234;2022-08-04T03:24:07;13.67;;;7.03;;
20445;SDS011;10382;49.140;9.234;2022-08-04T03:27:00;13.57;;;6.10;;
20445;SDS011;10382;49.140;9.234;2022-08-04T03:29:56;17.57;;;6.57;;
20445;SDS011;10382;49.140;9.234;2022-08-04T03:32:42;10.80;;;5.10;;
20445;SDS011;10382;49.140;9.234;2022-08-04T03:35:39;13.23;;;5.20;;
20445;SDS011;10382;49.140;9.234;2022-08-04T03:38:36;9.40;;;4.93;;
20445;SDS011;10382;49.140;9.234;2022-08-04T03:41:31;19.37;;;6.60;;
20445;SDS011;10382;49.140;9.234;2022-08-04T03:44:21;14.10;;;4.93;;
20445;SDS011;10382;49.140;9.234;2022-08-04T03:47:17;12.13;;;5.00;;
20445;SDS011;10382;49.140;9.234;2022-08-04T03:56:09;11.33;;;6.13;;
20445;SDS011;10382;49.140;9.234;2022-08-04T03:59:16;17.07;;;7.20;;
20445;SDS011;10382;49.140;9.234;2022-08-04T04:02:04;10.87;;;5.20;;
20445;SDS011;10382;49.140;9.234;2022-08-04T04:05:13;16.37;;;6.37;;
20445;SDS011;10382;49.140;9.234;2022-08-04T04:14:05;12.20;;;6.33;;
20445;SDS011;10382;49.140;9.234;2022-08-04T04:16:48;15.83;;;6.00;;
20445;SDS011;10382;49.140;9.234;2022-08-04T04:19:29;18.83;;;6.40;;
20445;SDS011;10382;49.140;9.234;2022-08-04T04:22:28;10.90;;;5.33;;
20445;SDS011;10382;49.140;9.234;2022-08-04T04:25:14;18.00;;;6.70;;
20445;SDS011;10382;49.140;9.234;2022-08-04T04:27:54;13.43;;;6.57;;
20445;SDS011;10382;49.140;9.234;2022-08-04T04:30:40;11.37;;;5.20;;
20445;SDS011;10382;49.140;9.234;2022-08-04T04:33:18;11.83;;;5.73;;
20445;SDS011;10382;49.140;9.234;2022-08-04T04:36:05;12.27;;;5.90;;
20445;SDS011;10382;49.140;9.234;2022-08-04T04:38:41;11.33;;;5.73;;
20445;SDS011;10382;49.140;9.234;2022-08-04T04:41:27;13.30;;;6.97;;
20445;SDS011;10382;49.140;9.234;2022-08-04T04:44:28;13.80;;;5.77;;
20445;SDS011;10382;49.140;9.234;2022-08-04T04:47:17;17.00;;;5.93;;
20445;SDS011;10382;49.140;9.234;2022-08-04T04:49:51;14.63;;;5.77;;
20445;SDS011;10382;49.140;9.234;2022-08-04T04:52:25;22.53;;;5.40;;
20445;SDS011;10382;49.140;9.234;2022-08-04T04:55:03;12.93;;;5.60;;
20445;SDS011;10382;49.140;9.234;2022-08-04T04:57:40;17.20;;;6.53;;
20445;SDS011;10382;49.140;9.234;2022-08-04T05:00:08;10.90;;;5.73;;
20445;SDS011;10382;49.140;9.234;2022-08-04T05:05:36;13.93;;;5.97;;
20445;SDS011;10382;49.140;9.234;2022-08-04T05:08:22;19.43;;;5.80;;
20445;SDS011;10382;49.140;9.234;2022-08-04T05:11:14;15.23;;;6.53;;
20445;SDS011;10382;49.140;9.234;2022-08-04T05:13:58;12.90;;;6.17;;
20445;SDS011;10382;49.140;9.234;2022-08-04T05:16:30;16.23;;;5.43;;
20445;SDS011;10382;49.140;9.234;2022-08-04T05:19:02;19.00;;;4.87;;
20445;SDS011;10382;49.140;9.234;2022-08-04T05:21:44;16.67;;;6.50;;
20445;SDS011;10382;49.140;9.234;2022-08-04T05:24:15;13.73;;;5.97;;
20445;SDS011;10382;49.140;9.234;2022-08-04T05:26:46;14.90;;;5.80;;
20445;SDS011;10382;49.140;9.234;2022-08-04T05:29:29;14.90;;;6.20;;
20445;SDS011;10382;49.140;9.234;2022-08-04T05:32:00;17.07;;;5.63;;
20445;SDS011;10382;49.140;9.234;2022-08-04T05:34:32;11.50;;;5.30;;
20445;SDS011;10382;49.140;9.234;2022-08-04T05:37:07;17.83;;;5.97;;
20445;SDS011;10382;49.140;9.234;2022-08-04T05:39:38;16.47;;;6.47;;
20445;SDS011;10382;49.140;9.234;2022-08-04T05:42:10;9.70;;;5.23;;
20445;SDS011;10382;49.140;9.234;2022-08-04T05:44:39;23.20;;;6.93;;
20445;SDS011;10382;49.140;9.234;2022-08-04T05:47:08;16.57;;;6.50;;
20445;SDS011;10382;49.140;9.234;2022-08-04T05:49:37;17.20;;;5.63;;
20445;SDS011;10382;49.140;9.234;2022-08-04T05:52:06;12.03;;;5.77;;
20445;SDS011;10382;49.140;9.234;2022-08-04T05:54:35;16.93;;;6.70;;
20445;SDS011;10382;49.140;9.234;2022-08-04T05:57:03;11.00;;;5.50;;
20445;SDS011;10382;49.140;9.234;2022-08-04T05:59:31;30.43;;;8.30;;
20445;SDS011;10382;49.140;9.234;2022-08-04T06:02:04;15.20;;;5.57;;
20445;SDS011;10382;49.140;9.234;2022-08-04T06:04:34;18.20;;;6.47;;
20445;SDS011;10382;49.140;9.234;2022-08-04T06:07:06;12.23;;;6.37;;
20445;SDS011;10382;49.140;9.234;2022-08-04T06:09:35;16.80;;;7.17;;
20445;SDS011;10382;49.140;9.234;2022-08-04T06:12:04;14.27;;;5.73;;
20445;SDS011;10382;49.140;9.234;2022-08-04T06:14:37;17.53;;;5.73;;
20445;SDS011;10382;49.140;9.234;2022-08-04T06:17:08;18.70;;;5.63;;
20445;SDS011;10382;49.140;9.234;2022-08-04T06:19:39;31.57;;;7.33;;
20445;SDS011;10382;49.140;9.234;2022-08-04T06:22:09;14.30;;;5.70;;
20445;SDS011;10382;49.140;9.234;2022-08-04T06:24:37;21.60;;;6.27;;
20445;SDS011;10382;49.140;9.234;2022-08-04T06:27:05;24.97;;;7.07;;
20445;SDS011;10382;49.140;9.234;2022-08-04T06:29:33;19.10;;;6.20;;
20445;SDS011;10382;49.140;9.234;2022-08-04T06:32:04;24.70;;;6.60;;
20445;SDS011;10382;49.140;9.234;2022-08-04T06:34:50;34.67;;;7.67;;
20445;SDS011;10382;49.140;9.234;2022-08-04T06:37:19;26.50;;;7.27;;
20445;SDS011;10382;49.140;9.234;2022-08-04T06:39:47;27.10;;;7.10;;
20445;SDS011;10382;49.140;9.234;2022-08-04T06:42:16;27.83;;;5.90;;
20445;SDS011;10382;49.140;9.234;2022-08-04T06:44:44;34.47;;;8.17;;
20445;SDS011;10382;49.140;9.234;2022-08-04T06:47:14;25.57;;;6.93;;
20445;SDS011;10382;49.140;9.234;2022-08-04T06:49:43;25.27;;;6.37;;
20445;SDS011;10382;49.140;9.234;2022-08-04T06:52:12;25.33;;;5.93;;
20445;SDS011;10382;49.140;9.234;2022-08-04T06:54:41;34.43;;;7.13;;
20445;SDS011;10382;49.140;9.234;2022-08-04T06:57:09;15.87;;;6.80;;
20445;SDS011;10382;49.140;9.234;2022-08-04T06:59:39;18.97;;;5.67;;
20445;SDS011;10382;49.140;9.234;2022-08-04T07:02:10;17.77;;;5.87;;
20445;SDS011;10382;49.140;9.234;2022-08-04T07:04:40;21.80;;;5.73;;
20445;SDS011;10382;49.140;9.234;2022-08-04T07:07:07;27.13;;;7.30;;
20445;SDS011;10382;49.140;9.234;2022-08-04T07:09:37;20.17;;;5.77;;
20445;SDS011;10382;49.140;9.234;2022-08-04T07:12:04;20.40;;;5.83;;
20445;SDS011;10382;49.140;9.234;2022-08-04T07:14:33;24.40;;;6.10;;
20445;SDS011;10382;49.140;9.234;2022-08-04T07:17:01;18.37;;;5.20;;
20445;SDS011;10382;49.140;9.234;2022-08-04T07:19:29;27.13;;;6.00;;
20445;SDS011;10382;49.140;9.234;2022-08-04T07:21:57;19.87;;;5.57;;
20445;SDS011;10382;49.140;9.234;2022-08-04T07:24:28;21.63;;;6.10;;
20445;SDS011;10382;49.140;9.234;2022-08-04T07:26:57;19.10;;;5.33;;
20445;SDS011;10382;49.140;9.234;2022-08-04T07:29:24;16.37;;;4.90;;
20445;SDS011;10382;49.140;9.234;2022-08-04T07:31:51;19.83;;;4.73;;
20445;SDS011;10382;49.140;9.234;2022-08-04T07:34:19;20.20;;;5.77;;
20445;SDS011;10382;49.140;9.234;2022-08-04T07:36:48;17.03;;;5.43;;
20445;SDS011;10382;49.140;9.234;2022-08-04T07:39:16;16.87;;;5.03;;
20445;SDS011;10382;49.140;9.234;2022-08-04T07:41:43;14.80;;;4.80;;
20445;SDS011;10382;49.140;9.234;2022-08-04T07:44:12;13.27;;;4.40;;
20445;SDS011;10382;49.140;9.234;2022-08-04T07:46:41;16.10;;;4.90;;
20445;SDS011;10382;49.140;9.234;2022-08-04T07:49:08;29.00;;;4.50;;
20445;SDS011;10382;49.140;9.234;2022-08-04T07:51:36;20.70;;;5.47;;
20445;SDS011;10382;49.140;9.234;2022-08-04T07:54:04;23.23;;;5.30;;
20445;SDS011;10382;49.140;9.234;2022-08-04T07:56:34;28.77;;;5.57;;
20445;SDS011;10382;49.140;9.234;2022-08-04T07:59:02;12.03;;;4.50;;
20445;SDS011;10382;49.140;9.234;2022-08-04T08:01:31;13.43;;;5.20;;
20445;SDS011;10382;49.140;9.234;2022-08-04T08:04:00;12.07;;;4.87;;
20445;SDS011;10382;49.140;9.234;2022-08-04T08:06:27;14.77;;;4.40;;
20445;SDS011;10382;49.140;9.234;2022-08-04T08:08:55;9.50;;;2.87;;
20445;SDS011;10382;49.140;9.234;2022-08-04T08:11:22;8.83;;;3.70;;
20445;SDS011;10382;49.140;9.234;2022-08-04T08:13:49;15.70;;;5.17;;
20445;SDS011;10382;49.140;9.234;2022-08-04T08:16:16;10.33;;;3.97;;
20445;SDS011;10382;49.140;9.234;2022-08-04T08:18:46;17.00;;;4.30;;
20445;SDS011;10382;49.140;9.234;2022-08-04T08:21:13;11.00;;;3.80;;
20445;SDS011;10382;49.140;9.234;2022-08-04T08:23:40;14.40;;;4.43;;
20445;SDS011;10382;49.140;9.234;2022-08-04T08:26:07;12.77;;;4.63;;
20445;SDS011;10382;49.140;9.234;2022-08-04T08:28:34;11.00;;;3.97;;
20445;SDS011;10382;49.140;9.234;2022-08-04T08:31:02;12.73;;;4.73;;
20445;SDS011;10382;49.140;9.234;2022-08-04T08:33:29;13.40;;;4.23;;
20445;SDS011;10382;49.140;9.234;2022-08-04T08:35:59;11.43;;;3.93;;
20445;SDS011;10382;49.140;9.234;2022-08-04T08:38:36;10.17;;;4.00;;
20445;SDS011;10382;49.140;9.234;2022-08-04T08:41:20;12.53;;;4.07;;
20445;SDS011;10382;49.140;9.234;2022-08-04T08:44:02;11.50;;;4.20;;
20445;SDS011;10382;49.140;9.234;2022-08-04T08:46:48;11.37;;;4.20;;
20445;SDS011;10382;49.140;9.234;2022-08-04T08:49:32;10.97;;;4.27;;
20445;SDS011;10382;49.140;9.234;2022-08-04T08:52:26;10.30;;;3.57;;
20445;SDS011;10382;49.140;9.234;2022-08-04T08:55:11;8.03;;;3.13;;
20445;SDS011;10382;49.140;9.234;2022-08-04T09:00:47;15.60;;;4.47;;
20445;SDS011;10382;49.140;9.234;2022-08-04T09:03:26;17.13;;;4.70;;
20445;SDS011;10382;49.140;9.234;2022-08-04T09:12:21;12.23;;;4.33;;
20445;SDS011;10382;49.140;9.234;2022-08-04T09:14:53;11.53;;;4.00;;
20445;SDS011;10382;49.140;9.234;2022-08-04T09:17:26;18.40;;;4.20;;
20445;SDS011;10382;49.140;9.234;2022-08-04T09:20:00;8.70;;;3.27;;
20445;SDS011;10382;49.140;9.234;2022-08-04T09:22:33;9.57;;;3.27;;
20445;SDS011;10382;49.140;9.234;2022-08-04T09:25:08;13.67;;;5.03;;
20445;SDS011;10382;49.140;9.234;2022-08-04T09:27:43;14.80;;;4.47;;
20445;SDS011;10382;49.140;9.234;2022-08-04T09:30:16;12.90;;;4.60;;
20445;SDS011;10382;49.140;9.234;2022-08-04T09:32:47;13.33;;;3.87;;
20445;SDS011;10382;49.140;9.234;2022-08-04T09:35:24;8.67;;;4.00;;
20445;SDS011;10382;49.140;9.234;2022-08-04T09:38:04;12.00;;;3.87;;
20445;SDS011;10382;49.140;9.234;2022-08-04T09:40:48;13.33;;;4.90;;
20445;SDS011;10382;49.140;9.234;2022-08-04T09:43:28;12.10;;;3.47;;
20445;SDS011;10382;49.140;9.234;2022-08-04T09:46:04;22.07;;;4.63;;
20445;SDS011;10382;49.140;9.234;2022-08-04T09:48:42;14.20;;;4.27;;
20445;SDS011;10382;49.140;9.234;2022-08-04T09:51:20;25.07;;;4.30;;
20445;SDS011;10382;49.140;9.234;2022-08-04T09:54:04;15.43;;;5.23;;
20445;SDS011;10382;49.140;9.234;2022-08-04T09:56:37;13.30;;;4.50;;
20445;SDS011;10382;49.140;9.234;2022-08-04T09:59:10;18.50;;;5.57;;
20445;SDS011;10382;49.140;9.234;2022-08-04T10:01:48;12.70;;;4.47;;
20445;SDS011;10382;49.140;9.234;2022-08-04T10:04:20;12.13;;;4.93;;
20445;SDS011;10382;49.140;9.234;2022-08-04T10:07:01;12.87;;;4.07;;
20445;SDS011;10382;49.140;9.234;2022-08-04T10:09:42;13.20;;;4.07;;
20445;SDS011;10382;49.140;9.234;2022-08-04T10:12:30;12.73;;;3.73;;
20445;SDS011;10382;49.140;9.234;2022-08-04T10:15:07;17.03;;;5.03;;
20445;SDS011;10382;49.140;9.234;2022-08-04T10:20:41;13.10;;;4.63;;
20445;SDS011;10382;49.140;9.234;2022-08-04T10:23:19;12.50;;;4.13;;
20445;SDS011;10382;49.140;9.234;2022-08-04T10:26:01;14.93;;;5.40;;
20445;SDS011;10382;49.140;9.234;2022-08-04T10:28:40;11.90;;;3.90;;
20445;SDS011;10382;49.140;9.234;2022-08-04T10:31:12;19.50;;;4.20;;
20445;SDS011;10382;49.140;9.234;2022-08-04T10:33:47;13.03;;;4.47;;
20445;SDS011;10382;49.140;9.234;2022-08-04T10:36:18;9.13;;;3.70;;
20445;SDS011;10382;49.140;9.234;2022-08-04T10:38:49;9.60;;;3.73;;
20445;SDS011;10382;49.140;9.234;2022-08-04T10:41:34;23.53;;;4.63;;
20445;SDS011;10382;49.140;9.234;2022-08-04T10:44:13;9.03;;;3.70;;
20445;SDS011;10382;49.140;9.234;2022-08-04T10:46:48;15.63;;;3.80;;
20445;SDS011;10382;49.140;9.234;2022-08-04T10:49:26;8.90;;;3.40;;
20445;SDS011;10382;49.140;9.234;2022-08-04T10:52:01;14.80;;;4.20;;
20445;SDS011;10382;49.140;9.234;2022-08-04T10:54:35;9.80;;;3.93;;
20445;SDS011;10382;49.140;9.234;2022-08-04T10:57:10;18.20;;;3.97;;
20445;SDS011;10382;49.140;9.234;2022-08-04T10:59:44;11.47;;;4.20;;
20445;SDS011;10382;49.140;9.234;2022-08-04T11:02:20;13.63;;;4.17;;
20445;SDS011;10382;49.140;9.234;2022-08-04T11:04:58;11.53;;;3.80;;
20445;SDS011;10382;49.140;9.234;2022-08-04T11:07:31;10.97;;;4.00;;
20445;SDS011;10382;49.140;9.234;2022-08-04T11:10:02;13.10;;;4.13;;
20445;SDS011;10382;49.140;9.234;2022-08-04T11:12:31;9.90;;;3.27;;
20445;SDS011;10382;49.140;9.234;2022-08-04T11:15:03;14.43;;;4.50;;
20445;SDS011;10382;49.140;9.234;2022-08-04T11:17:35;15.03;;;4.70;;
20445;SDS011;10382;49.140;9.234;2022-08-04T11:20:10;9.67;;;3.47;;
20445;SDS011;10382;49.140;9.234;2022-08-04T11:22:40;7.87;;;3.30;;
20445;SDS011;10382;49.140;9.234;2022-08-04T11:25:19;21.30;;;4.03;;
20445;SDS011;10382;49.140;9.234;2022-08-04T11:27:53;12.60;;;3.97;;
20445;SDS011;10382;49.140;9.234;2022-08-04T11:30:28;19.60;;;4.33;;
20445;SDS011;10382;49.140;9.234;2022-08-04T11:33:03;15.47;;;4.00;;
20445;SDS011;10382;49.140;9.234;2022-08-04T11:35:36;11.27;;;3.33;;
20445;SDS011;10382;49.140;9.234;2022-08-04T11:38:10;13.70;;;3.47;;
20445;SDS011;10382;49.140;9.234;2022-08-04T11:40:46;11.40;;;3.63;;
20445;SDS011;10382;49.140;9.234;2022-08-04T11:43:18;16.13;;;3.40;;
20445;SDS011;10382;49.140;9.234;2022-08-04T11:45:53;17.30;;;3.87;;
20445;SDS011;10382;49.140;9.234;2022-08-04T11:48:27;14.60;;;4.20;;
20445;SDS011;10382;49.140;9.234;2022-08-04T11:50:57;14.63;;;4.47;;
20445;SDS011;10382;49.140;9.234;2022-08-04T11:53:29;14.43;;;3.83;;
20445;SDS011;10382;49.140;9.234;2022-08-04T11:55:58;15.07;;;4.57;;
20445;SDS011;10382;49.140;9.234;2022-08-04T11:58:27;17.40;;;4.67;;
20445;SDS011;10382;49.140;9.234;2022-08-04T12:01:01;12.47;;;3.40;;
20445;SDS011;10382;49.140;9.234;2022-08-04T12:03:35;11.13;;;3.47;;
20445;SDS011;10382;49.140;9.234;2022-08-04T12:06:12;12.80;;;3.40;;
20445;SDS011;10382;49.140;9.234;2022-08-04T12:08:50;15.87;;;4.03;;
20445;SDS011;10382;49.140;9.234;2022-08-04T12:11:34;22.70;;;4.87;;
20445;SDS011;10382;49.140;9.234;2022-08-04T12:14:12;15.27;;;4.07;;
20445;SDS011;10382;49.140;9.234;2022-08-04T12:16:51;20.73;;;3.93;;
20445;SDS011;10382;49.140;9.234;2022-08-04T12:19:26;14.90;;;4.07;;
20445;SDS011;10382;49.140;9.234;2022-08-04T12:21:57;16.07;;;4.03;;
20445;SDS011;10382;49.140;9.234;2022-08-04T12:24:30;21.97;;;4.50;;
20445;SDS011;10382;49.140;9.234;2022-08-04T12:27:02;21.57;;;3.60;;
20445;SDS011;10382;49.140;9.234;2022-08-04T12:29:33;14.73;;;4.10;;
20445;SDS011;10382;49.140;9.234;2022-08-04T12:32:10;22.63;;;4.90;;
20445;SDS011;10382;49.140;9.234;2022-08-04T12:34:45;12.80;;;3.47;;
20445;SDS011;10382;49.140;9.234;2022-08-04T12:37:17;14.57;;;4.03;;
20445;SDS011;10382;49.140;9.234;2022-08-04T12:39:52;15.83;;;4.07;;
20445;SDS011;10382;49.140;9.234;2022-08-04T12:42:26;11.33;;;3.70;;
20445;SDS011;10382;49.140;9.234;2022-08-04T12:44:59;20.30;;;4.27;;
20445;SDS011;10382;49.140;9.234;2022-08-04T12:47:34;12.67;;;3.73;;
20445;SDS011;10382;49.140;9.234;2022-08-04T12:50:03;19.27;;;4.43;;
20445;SDS011;10382;49.140;9.234;2022-08-04T12:52:33;13.20;;;3.67;;
20445;SDS011;10382;49.140;9.234;2022-08-04T12:55:07;20.23;;;4.63;;
20445;SDS011;10382;49.140;9.234;2022-08-04T12:57:35;19.77;;;4.63;;
20445;SDS011;10382;49.140;9.234;2022-08-04T13:00:03;22.80;;;4.30;;
20445;SDS011;10382;49.140;9.234;2022-08-04T13:02:32;11.97;;;3.40;;
20445;SDS011;10382;49.140;9.234;2022-08-04T13:05:05;14.07;;;4.30;;
20445;SDS011;10382;49.140;9.234;2022-08-04T13:07:35;12.50;;;3.67;;
20445;SDS011;10382;49.140;9.234;2022-08-04T13:10:05;12.80;;;4.10;;
20445;SDS011;10382;49.140;9.234;2022-08-04T13:12:37;14.60;;;4.00;;
20445;SDS011;10382;49.140;9.234;2022-08-04T13:15:08;13.30;;;3.30;;
20445;SDS011;10382;49.140;9.234;2022-08-04T13:17:44;25.13;;;5.90;;
20445;SDS011;10382;49.140;9.234;2022-08-04T13:20:16;14.90;;;4.57;;
20445;SDS011;10382;49.140;9.234;2022-08-04T13:22:49;17.37;;;3.53;;
20445;SDS011;10382;49.140;9.234;2022-08-04T13:25:16;15.67;;;4.33;;
20445;SDS011;10382;49.140;9.234;2022-08-04T13:27:44;19.17;;;4.33;;
20445;SDS011;10382;49.140;9.234;2022-08-04T13:30:12;11.93;;;3.77;;
20445;SDS011;10382;49.140;9.234;2022-08-04T13:32:45;18.53;;;4.93;;
20445;SDS011;10382;49.140;9.234;2022-08-04T13:35:13;13.00;;;4.00;;
20445;SDS011;10382;49.140;9.234;2022-08-04T13:37:40;12.60;;;3.20;;
20445;SDS011;10382;49.140;9.234;2022-08-04T13:40:08;17.60;;;5.10;;
20445;SDS011;10382;49.140;9.234;2022-08-04T13:42:38;11.00;;;3.40;;
20445;SDS011;10382;49.140;9.234;2022-08-04T13:45:11;14.60;;;4.30;;
20445;SDS011;10382;49.140;9.234;2022-08-04T13:47:40;19.17;;;3.87;;
20445;SDS011;10382;49.140;9.234;2022-08-04T13:50:18;18.30;;;4.50;;
20445;SDS011;10382;49.140;9.234;2022-08-04T13:52:49;10.37;;;3.13;;
20445;SDS011;10382;49.140;9.234;2022-08-04T13:55:21;14.30;;;3.60;;
20445;SDS011;10382;49.140;9.234;2022-08-04T13:57:51;12.60;;;3.87;;
20445;SDS011;10382;49.140;9.234;2022-08-04T14:00:22;16.07;;;4.30;;
20445;SDS011;10382;49.140;9.234;2022-08-04T14:02:56;12.00;;;3.77;;
20445;SDS011;10382;49.140;9.234;2022-08-04T14:05:27;12.63;;;3.50;;
20445;SDS011;10382;49.140;9.234;2022-08-04T14:07:57;19.27;;;4.10;;
20445;SDS011;10382;49.140;9.234;2022-08-04T14:10:26;13.30;;;3.80;;
20445;SDS011;10382;49.140;9.234;2022-08-04T14:12:53;12.40;;;3.90;;
20445;SDS011;10382;49.140;9.234;2022-08-04T14:15:34;9.10;;;3.40;;
20445;SDS011;10382;49.140;9.234;2022-08-04T14:18:15;10.57;;;2.93;;
20445;SDS011;10382;49.140;9.234;2022-08-04T14:21:01;14.20;;;3.70;;
20445;SDS011;10382;49.140;9.234;2022-08-04T14:23:36;10.20;;;3.20;;
20445;SDS011;10382;49.140;9.234;2022-08-04T14:26:15;23.07;;;4.43;;
20445;SDS011;10382;49.140;9.234;2022-08-04T14:28:47;20.97;;;5.83;;
20445;SDS011;10382;49.140;9.234;2022-08-04T14:31:15;17.10;;;4.53;;
20445;SDS011;10382;49.140;9.234;2022-08-04T14:33:43;16.63;;;4.87;;
20445;SDS011;10382;49.140;9.234;2022-08-04T14:36:14;15.67;;;3.87;;
20445;SDS011;10382;49.140;9.234;2022-08-04T14:38:46;11.93;;;3.63;;
20445;SDS011;10382;49.140;9.234;2022-08-04T14:41:19;13.43;;;3.97;;
20445;SDS011;10382;49.140;9.234;2022-08-04T14:43:50;14.63;;;4.80;;
20445;SDS011;10382;49.140;9.234;2022-08-04T14:46:19;15.73;;;4.50;;
20445;SDS011;10382;49.140;9.234;2022-08-04T14:48:59;6.60;;;2.50;;
20445;SDS011;10382;49.140;9.234;2022-08-04T14:51:34;12.17;;;3.90;;
20445;SDS011;10382;49.140;9.234;2022-08-04T14:54:02;13.10;;;4.40;;
20445;SDS011;10382;49.140;9.234;2022-08-04T14:56:30;12.87;;;3.60;;
20445;SDS011;10382;49.140;9.234;2022-08-04T14:58:58;11.23;;;3.63;;
20445;SDS011;10382;49.140;9.234;2022-08-04T15:01:26;13.17;;;4.07;;
20445;SDS011;10382;49.140;9.234;2022-08-04T15:03:54;20.97;;;6.07;;
20445;SDS011;10382;49.140;9.234;2022-08-04T15:06:22;12.93;;;3.93;;
20445;SDS011;10382;49.140;9.234;2022-08-04T15:08:53;23.53;;;4.97;;
20445;SDS011;10382;49.140;9.234;2022-08-04T15:11:23;14.20;;;4.30;;
20445;SDS011;10382;49.140;9.234;2022-08-04T15:13:51;18.67;;;4.60;;
20445;SDS011;10382;49.140;9.234;2022-08-04T15:16:18;17.00;;;4.43;;
20445;SDS011;10382;49.140;9.234;2022-08-04T15:18:46;15.83;;;3.77;;
20445;SDS011;10382;49.140;9.234;2022-08-04T15:21:13;13.40;;;3.93;;
20445;SDS011;10382;49.140;9.234;2022-08-04T15:23:40;21.67;;;4.63;;
20445;SDS011;10382;49.140;9.234;2022-08-04T15:26:10;14.40;;;3.70;;
20445;SDS011;10382;49.140;9.234;2022-08-04T15:28:43;14.23;;;3.63;;
20445;SDS011;10382;49.140;9.234;2022-08-04T15:31:13;13.17;;;3.37;;
20445;SDS011;10382;49.140;9.234;2022-08-04T15:33:42;22.43;;;5.00;;
20445;SDS011;10382;49.140;9.234;2022-08-04T15:36:12;18.23;;;3.85;;
20445;SDS011;10382;49.140;9.234;2022-08-04T15:38:43;20.13;;;4.50;;
20445;SDS011;10382;49.140;9.234;2022-08-04T15:41:19;18.97;;;4.03;;
20445;SDS011;10382;49.140;9.234;2022-08-04T15:43:58;24.07;;;6.30;;
20445;SDS011;10382;49.140;9.234;2022-08-04T15:49:38;20.70;;;5.00;;
20445;SDS011;10382;49.140;9.234;2022-08-04T15:52:06;18.17;;;4.40;;
20445;SDS011;10382;49.140;9.234;2022-08-04T15:54:34;19.60;;;4.50;;
20445;SDS011;10382;49.140;9.234;2022-08-04T15:57:03;19.70;;;4.45;;